Time;durP1;ratioP1;P1;durP2;ratioP2;P2;SDS_P1;SDS_P2;PMS_P1;PMS_P2;Temp;Humidity;BMP_temperature;BMP_pressure;BME280_temperature;BME280_humidity;BME280_pressure;Samples;Min_cycle;Max_cycle;Signal;HPM_P1;HPM_P2
2022/03/20 00:01:09;;;;;;;6.03;3.53;;;5.40;83.60;;;;;;5123528;27;20187;-61
2022/03/20 00:03:54;;;;;;;5.27;3.17;;;5.40;83.90;;;;;;5120862;27;20199;-56
2022/03/20 00:06:38;;;;;;;6.80;4.30;;;5.40;83.70;;;;;;5125003;27;20211;-54
2022/03/20 00:09:23;;;;;;;7.43;3.83;;;5.40;83.90;;;;;;5122080;27;20195;-57
2022/03/20 00:12:08;;;;;;;7.53;4.57;;;5.40;84.30;;;;;;5122239;27;20215;-59
2022/03/20 00:14:54;;;;;;;6.33;4.27;;;5.40;84.30;;;;;;5124978;27;20199;-59
2022/03/20 00:17:39;;;;;;;10.07;4.67;;;5.40;84.30;;;;;;5120595;27;20300;-54
2022/03/20 00:20:23;;;;;;;5.53;3.70;;;5.50;84.00;;;;;;5123974;27;20199;-56
2022/03/20 00:23:09;;;;;;;6.60;4.33;;;5.50;84.30;;;;;;5124363;27;20187;-58
2022/03/20 00:25:55;;;;;;;8.33;4.83;;;5.50;84.00;;;;;;5120609;27;20195;-54
2022/03/20 00:28:42;;;;;;;7.47;4.50;;;5.50;84.20;;;;;;5125108;27;20199;-56
2022/03/20 00:31:32;;;;;;;6.70;4.40;;;5.50;84.40;;;;;;5123727;27;20220;-60
2022/03/20 00:34:17;;;;;;;7.40;4.27;;;5.50;84.50;;;;;;5120451;27;20245;-57
2022/03/20 00:37:02;;;;;;;5.63;4.03;;;5.50;84.50;;;;;;5124400;27;20201;-55
2022/03/20 00:39:48;;;;;;;8.00;3.83;;;5.50;84.50;;;;;;5122278;27;20231;-59
2022/03/20 00:42:32;;;;;;;5.77;4.27;;;5.50;84.60;;;;;;5121351;27;20264;-58
2022/03/20 00:45:18;;;;;;;7.03;4.33;;;5.40;84.80;;;;;;5124245;27;20277;-58
2022/03/20 00:48:03;;;;;;;4.07;3.67;;;5.40;84.90;;;;;;5121324;27;20225;-59
2022/03/20 00:50:49;;;;;;;5.30;3.73;;;5.40;85.00;;;;;;5123140;28;20223;-50
2022/03/20 00:53:36;;;;;;;6.17;3.70;;;5.30;85.30;;;;;;5124466;28;20202;-57
2022/03/20 00:56:20;;;;;;;9.20;4.00;;;5.40;85.50;;;;;;5119779;28;20299;-54
2022/03/20 00:59:05;;;;;;;8.60;3.80;;;5.40;85.30;;;;;;5123890;28;20191;-52
2022/03/20 01:01:51;;;;;;;7.10;3.80;;;5.30;85.40;;;;;;5123628;28;20202;-61
2022/03/20 01:04:36;;;;;;;8.13;5.60;;;5.30;85.50;;;;;;5119895;28;20203;-58
2022/03/20 01:07:20;;;;;;;10.03;4.90;;;5.30;85.50;;;;;;5123873;28;20245;-49
2022/03/20 01:10:06;;;;;;;9.20;3.93;;;5.30;85.90;;;;;;5121869;28;20289;-54
2022/03/20 01:12:51;;;;;;;11.47;4.53;;;5.30;85.60;;;;;;5120677;27;20250;-54
2022/03/20 01:15:36;;;;;;;6.37;4.23;;;5.30;85.90;;;;;;5128499;27;20213;-58
2022/03/20 01:18:21;;;;;;;8.97;4.60;;;5.30;86.10;;;;;;5124945;27;20249;-51
2022/03/20 01:21:06;;;;;;;5.20;4.23;;;5.30;85.90;;;;;;5125637;27;20195;-54
2022/03/20 01:23:50;;;;;;;7.70;4.50;;;5.30;86.00;;;;;;5128654;27;20209;-58
2022/03/20 01:26:38;;;;;;;8.27;3.60;;;5.30;86.20;;;;;;5124255;27;20191;-52
2022/03/20 01:29:22;;;;;;;7.77;5.03;;;5.30;86.20;;;;;;5127185;27;20195;-57
2022/03/20 01:32:08;;;;;;;7.70;4.17;;;5.30;86.20;;;;;;5127538;27;20280;-58
2022/03/20 01:34:53;;;;;;;7.70;3.60;;;5.30;86.30;;;;;;5123507;27;20253;-54
2022/03/20 01:37:37;;;;;;;6.37;3.70;;;5.30;86.50;;;;;;5127667;27;20191;-60
2022/03/20 01:40:22;;;;;;;7.70;4.93;;;5.30;86.80;;;;;;5126067;27;20312;-61
2022/03/20 01:43:06;;;;;;;6.67;4.90;;;5.20;87.10;;;;;;5123690;27;20214;-52
2022/03/20 01:45:50;;;;;;;9.10;4.60;;;5.30;87.00;;;;;;5127368;27;20234;-53
2022/03/20 01:48:35;;;;;;;9.47;4.50;;;5.30;87.00;;;;;;5124507;27;20214;-60
2022/03/20 01:52:10;;;;;;;8.20;5.40;;;5.30;87.00;;;;;;5125130;27;20276;-55
2022/03/20 01:54:26;;;;;;;8.77;4.17;;;5.30;87.20;;;;;;5128662;27;20246;-55
2022/03/20 01:57:13;;;;;;;6.53;3.80;;;5.30;87.50;;;;;;5123899;27;20203;-56
2022/03/20 01:59:58;;;;;;;7.43;5.17;;;5.20;87.50;;;;;;5125438;27;20200;-55
2022/03/20 02:02:42;;;;;;;10.17;3.87;;;5.20;87.80;;;;;;5127284;27;20231;-52
2022/03/20 02:05:27;;;;;;;6.20;3.83;;;5.10;88.00;;;;;;5122622;27;20203;-60
2022/03/20 02:08:12;;;;;;;6.43;3.83;;;5.10;88.20;;;;;;5127374;27;20229;-58
2022/03/20 02:10:57;;;;;;;8.50;4.20;;;5.20;88.40;;;;;;5126364;27;20219;-52
2022/03/20 02:13:43;;;;;;;8.67;4.47;;;5.20;88.60;;;;;;5122759;27;20219;-56
2022/03/20 02:16:27;;;;;;;8.27;4.97;;;5.10;88.50;;;;;;5127418;27;20215;-57
2022/03/20 02:19:16;;;;;;;7.23;4.93;;;5.20;88.80;;;;;;5125805;27;20187;-56
2022/03/20 02:22:02;;;;;;;5.43;4.53;;;5.10;89.60;;;;;;5124421;27;20276;-58
2022/03/20 02:24:49;;;;;;;4.60;3.20;;;5.20;88.90;;;;;;5126668;27;20187;-54
2022/03/20 02:27:34;;;;;;;11.93;4.77;;;5.20;89.00;;;;;;5124961;27;20197;-61
2022/03/20 02:30:18;;;;;;;7.23;4.87;;;5.10;89.20;;;;;;5124132;27;20673;-55
2022/03/20 02:33:04;;;;;;;10.20;4.73;;;5.10;89.60;;;;;;5127110;27;20218;-57
2022/03/20 02:35:50;;;;;;;8.70;5.10;;;5.10;89.60;;;;;;5122062;27;20193;-55
2022/03/20 02:38:35;;;;;;;9.50;5.77;;;5.10;89.70;;;;;;5125942;27;20203;-55
2022/03/20 02:41:20;;;;;;;6.07;4.10;;;5.00;89.90;;;;;;5126343;27;20215;-50
2022/03/20 02:44:04;;;;;;;10.20;4.40;;;5.00;90.00;;;;;;5121963;27;20325;-55
2022/03/20 02:46:48;;;;;;;9.60;3.77;;;5.00;90.10;;;;;;5126522;27;20222;-57
2022/03/20 02:49:37;;;;;;;9.40;4.70;;;5.00;90.20;;;;;;5125278;27;20234;-61
2022/03/20 02:52:24;;;;;;;7.33;4.30;;;5.10;90.20;;;;;;5122224;27;20222;-59
2022/03/20 02:55:08;;;;;;;7.20;3.80;;;5.00;90.20;;;;;;5126280;27;20234;-54
2022/03/20 02:57:56;;;;;;;10.37;4.50;;;5.00;90.20;;;;;;5122880;27;20256;-57
2022/03/20 03:00:42;;;;;;;8.57;3.70;;;5.00;90.40;;;;;;5122768;27;20262;-52
2022/03/20 03:03:26;;;;;;;7.10;3.27;;;5.00;90.40;;;;;;5125836;27;20199;-59
2022/03/20 03:06:13;;;;;;;10.13;5.07;;;5.00;90.30;;;;;;5121701;27;20260;-60
2022/03/20 03:12:00;;;;;;;7.67;4.67;;;5.00;90.50;;;;;;5127000;27;20276;-59
2022/03/20 03:17:49;;;;;;;10.93;4.10;;;4.90;90.70;;;;;;5124282;27;20199;-54
2022/03/20 03:20:34;;;;;;;4.87;3.67;;;4.90;90.80;;;;;;5125826;27;20187;-57
2022/03/20 03:23:20;;;;;;;8.60;4.13;;;4.90;90.90;;;;;;5121716;27;20262;-54
2022/03/20 03:26:06;;;;;;;8.20;4.87;;;4.80;90.90;;;;;;5124154;27;20270;-56
2022/03/20 03:28:51;;;;;;;9.57;5.97;;;4.80;90.90;;;;;;5125113;27;20200;-57
2022/03/20 03:31:36;;;;;;;8.57;4.57;;;4.80;91.00;;;;;;5121372;27;20211;-59
2022/03/20 03:37:25;;;;;;;6.00;3.63;;;4.80;91.20;;;;;;5125890;27;20199;-55
2022/03/20 03:40:10;;;;;;;5.43;4.07;;;4.70;91.20;;;;;;5121411;27;20235;-59
2022/03/20 03:42:55;;;;;;;6.47;4.03;;;4.70;91.30;;;;;;5125231;27;20285;-57
2022/03/20 03:45:39;;;;;;;4.67;3.37;;;4.70;91.40;;;;;;5124404;27;20198;-61
2022/03/20 03:48:25;;;;;;;5.77;3.53;;;4.70;91.40;;;;;;5120949;27;20237;-54
2022/03/20 03:51:10;;;;;;;7.77;4.57;;;4.70;91.50;;;;;;5125742;27;20261;-54
2022/03/20 03:53:55;;;;;;;6.63;4.00;;;4.70;91.50;;;;;;5121763;27;20207;-60
2022/03/20 03:56:40;;;;;;;7.83;4.20;;;4.70;91.40;;;;;;5122780;27;20231;-58
2022/03/20 03:59:25;;;;;;;13.33;5.30;;;4.60;91.50;;;;;;5124652;27;20218;-56
2022/03/20 04:02:09;;;;;;;6.10;4.10;;;4.60;91.60;;;;;;5120815;27;20276;-52
2022/03/20 04:04:54;;;;;;;4.83;2.93;;;4.60;91.70;;;;;;5124295;27;20223;-57
2022/03/20 04:07:40;;;;;;;8.60;4.17;;;4.50;91.80;;;;;;5124362;27;20195;-51
2022/03/20 04:10:24;;;;;;;30.80;13.23;;;4.60;92.20;;;;;;5120703;27;20191;-56
2022/03/20 04:13:09;;;;;;;4.87;4.13;;;4.60;92.40;;;;;;5124775;27;20275;-57
2022/03/20 04:15:53;;;;;;;7.67;4.87;;;4.70;93.60;;;;;;5122887;27;20186;-53
2022/03/20 04:18:37;;;;;;;7.30;4.17;;;4.80;93.30;;;;;;5120919;27;20241;-56
2022/03/20 04:21:21;;;;;;;4.40;2.93;;;4.60;91.90;;;;;;5124362;27;20281;-52
2022/03/20 04:24:07;;;;;;;5.83;4.00;;;4.60;92.10;;;;;;5121194;27;20318;-58
2022/03/20 04:26:53;;;;;;;4.97;3.87;;;4.50;91.90;;;;;;5122420;27;20190;-58
2022/03/20 04:29:37;;;;;;;6.70;4.23;;;4.50;92.00;;;;;;5124337;27;20192;-57
2022/03/20 04:32:23;;;;;;;6.80;4.43;;;4.40;92.00;;;;;;5132045;27;20190;-59
2022/03/20 04:35:08;;;;;;;9.60;4.40;;;4.40;92.00;;;;;;5129515;27;20219;-54
2022/03/20 04:37:53;;;;;;;3.87;3.53;;;4.30;92.00;;;;;;5133321;27;20195;-62
2022/03/20 04:40:38;;;;;;;9.00;3.43;;;4.30;92.50;;;;;;5129691;27;20222;-52
2022/03/20 04:43:22;;;;;;;6.67;4.60;;;4.20;92.20;;;;;;5134543;27;20244;-58
2022/03/20 04:46:07;;;;;;;6.47;3.70;;;4.30;92.20;;;;;;5134063;27;20186;-60
2022/03/20 05:01:00;;;;;;;10.30;3.97;;;4.00;92.20;;;;;;5103532;28;20239;-50
2022/03/20 05:03:45;;;;;;;7.47;4.37;;;4.00;92.30;;;;;;5105037;28;20223;-55
2022/03/20 05:06:29;;;;;;;6.27;3.93;;;4.00;92.20;;;;;;5100955;28;20262;-57
2022/03/20 05:15:27;;;;;;;5.63;3.33;;;4.10;92.10;;;;;;5102189;28;20250;-57
2022/03/20 05:18:11;;;;;;;6.00;3.83;;;4.10;92.10;;;;;;5104300;28;20196;-55
2022/03/20 05:20:56;;;;;;;4.10;2.90;;;4.00;92.10;;;;;;5103764;28;20216;-57
2022/03/20 05:23:40;;;;;;;6.37;3.73;;;3.90;92.30;;;;;;5100282;28;20238;-51
2022/03/20 05:26:28;;;;;;;4.80;3.80;;;3.90;92.30;;;;;;5104844;28;20277;-57
2022/03/20 05:29:12;;;;;;;6.60;3.83;;;3.90;92.30;;;;;;5102505;28;20196;-61
2022/03/20 05:31:57;;;;;;;5.27;3.50;;;3.80;92.40;;;;;;5101101;28;20218;-55
2022/03/20 05:34:42;;;;;;;5.80;4.17;;;3.70;92.50;;;;;;5104242;28;20223;-59
2022/03/20 05:37:26;;;;;;;6.17;3.57;;;3.70;92.70;;;;;;5101162;28;20196;-58
2022/03/20 05:40:12;;;;;;;7.50;3.70;;;3.80;92.70;;;;;;5102724;28;20220;-58
2022/03/20 05:42:57;;;;;;;5.87;3.83;;;3.80;92.60;;;;;;5104791;28;20245;-58
2022/03/20 05:45:44;;;;;;;4.67;3.20;;;3.80;92.50;;;;;;5100816;28;20208;-55
2022/03/20 05:48:28;;;;;;;6.27;3.10;;;3.90;92.80;;;;;;5104171;28;20222;-58
2022/03/20 05:51:15;;;;;;;9.40;4.10;;;3.90;92.50;;;;;;5104265;28;20259;-56
2022/03/20 05:53:59;;;;;;;11.10;4.90;;;4.00;92.60;;;;;;5100045;28;20196;-57
2022/03/20 05:59:47;;;;;;;6.63;3.97;;;3.70;93.60;;;;;;5105991;28;20208;-55
2022/03/20 06:02:32;;;;;;;8.40;4.63;;;3.70;93.80;;;;;;5103504;28;20246;-58
2022/03/20 06:05:17;;;;;;;9.03;5.33;;;3.70;94.10;;;;;;5108091;28;20249;-60
2022/03/20 06:08:02;;;;;;;8.47;4.73;;;3.60;94.10;;;;;;5106027;28;20290;-60
2022/03/20 06:10:48;;;;;;;10.63;4.90;;;3.50;94.50;;;;;;5105020;28;20228;-57
2022/03/20 06:13:35;;;;;;;10.43;5.47;;;3.40;94.80;;;;;;5108072;28;20211;-59
2022/03/20 06:16:23;;;;;;;8.63;4.80;;;3.40;95.10;;;;;;5104718;28;20208;-60
2022/03/20 06:19:08;;;;;;;10.17;5.20;;;3.40;95.20;;;;;;5105244;28;20334;-58
2022/03/20 06:21:52;;;;;;;7.10;4.67;;;3.40;95.30;;;;;;5107398;28;20232;-52
2022/03/20 06:24:36;;;;;;;14.10;6.27;;;3.40;95.40;;;;;;5103338;28;20276;-57
2022/03/20 06:27:20;;;;;;;11.27;6.13;;;3.40;95.50;;;;;;5106980;28;20207;-59
2022/03/20 06:30:05;;;;;;;8.20;4.90;;;3.40;95.60;;;;;;5107081;28;20222;-59
2022/03/20 06:32:50;;;;;;;10.30;4.87;;;3.40;95.60;;;;;;5103491;28;20210;-52
2022/03/20 06:35:34;;;;;;;10.30;5.97;;;3.50;95.70;;;;;;5107697;28;20196;-59
2022/03/20 06:38:19;;;;;;;12.40;5.93;;;3.50;95.80;;;;;;5105439;28;20200;-59
2022/03/20 06:41:06;;;;;;;5.83;4.73;;;3.60;95.80;;;;;;5104368;28;20281;-57
2022/03/20 06:43:50;;;;;;;8.50;4.37;;;3.50;95.90;;;;;;5107520;28;20211;-51
2022/03/20 06:46:39;;;;;;;9.03;4.93;;;3.50;95.90;;;;;;5103749;28;20254;-60
2022/03/20 06:49:23;;;;;;;10.07;4.90;;;3.50;95.90;;;;;;5104727;28;20247;-52
2022/03/20 06:52:08;;;;;;;10.43;4.93;;;3.60;95.90;;;;;;5107708;28;20188;-60
2022/03/20 06:54:53;;;;;;;5.37;4.53;;;3.70;95.70;;;;;;5103383;28;20196;-57
2022/03/20 06:57:41;;;;;;;9.03;5.53;;;3.90;95.20;;;;;;5106646;28;20210;-57
2022/03/20 07:00:28;;;;;;;10.00;4.50;;;4.20;94.50;;;;;;5106778;28;20250;-59
2022/03/20 07:03:13;;;;;;;9.67;3.80;;;4.60;92.80;;;;;;5102344;28;20258;-57
2022/03/20 07:05:59;;;;;;;4.73;3.00;;;4.90;91.80;;;;;;5106790;28;20191;-53
2022/03/20 07:08:43;;;;;;;5.93;3.40;;;5.20;91.00;;;;;;5105996;28;20249;-59
2022/03/20 07:11:32;;;;;;;20.47;4.03;;;5.30;90.90;;;;;;5102315;28;20245;-53
2022/03/20 07:14:17;;;;;;;5.93;3.20;;;5.50;90.50;;;;;;5106765;28;20204;-53
2022/03/20 07:17:10;;;;;;;5.50;3.17;;;5.60;89.70;;;;;;5104147;28;20246;-55
2022/03/20 07:19:58;;;;;;;4.67;3.40;;;5.80;89.20;;;;;;5102986;28;20184;-50
2022/03/20 07:22:43;;;;;;;3.90;3.40;;;5.80;88.80;;;;;;5106390;28;20231;-52
2022/03/20 07:31:35;;;;;;;8.40;3.27;;;6.20;86.50;;;;;;5107847;28;20215;-52
2022/03/20 07:34:19;;;;;;;4.63;2.97;;;6.20;85.90;;;;;;5104000;28;20200;-53
2022/03/20 07:37:04;;;;;;;6.20;3.40;;;6.30;85.40;;;;;;5103645;28;20207;-49
2022/03/20 07:39:51;;;;;;;7.93;3.20;;;6.50;84.80;;;;;;5106684;28;20244;-50
2022/03/20 07:42:35;;;;;;;5.83;3.13;;;6.60;84.10;;;;;;5102229;28;20315;-50
2022/03/20 07:45:21;;;;;;;7.77;3.40;;;6.70;84.30;;;;;;5104661;28;20280;-50
2022/03/20 07:48:05;;;;;;;3.60;3.30;;;6.70;82.90;;;;;;5106340;28;20219;-50
2022/03/20 07:50:50;;;;;;;3.53;2.70;;;6.80;82.50;;;;;;5102045;28;20200;-48
2022/03/20 07:53:35;;;;;;;5.73;2.90;;;6.90;83.20;;;;;;5105297;28;20200;-50
2022/03/20 07:56:22;;;;;;;3.87;2.90;;;7.00;82.20;;;;;;5106287;28;20261;-54
2022/03/20 07:59:07;;;;;;;4.93;2.87;;;7.00;82.00;;;;;;5102255;28;20235;-49
2022/03/20 08:01:51;;;;;;;5.90;2.90;;;7.10;82.00;;;;;;5105570;28;20312;-53
2022/03/20 08:04:35;;;;;;;6.03;3.07;;;7.20;81.20;;;;;;5103786;28;20219;-56
2022/03/20 08:07:23;;;;;;;4.23;3.83;;;7.30;80.80;;;;;;5102545;28;20205;-53
2022/03/20 08:10:09;;;;;;;5.03;2.57;;;7.40;80.30;;;;;;5105845;28;20265;-55
2022/03/20 08:12:54;;;;;;;4.23;3.27;;;7.50;79.90;;;;;;5102342;28;20191;-49
2022/03/20 08:15:43;;;;;;;3.60;3.23;;;7.60;79.60;;;;;;5103677;28;20227;-58
2022/03/20 08:18:27;;;;;;;5.53;3.40;;;7.80;79.40;;;;;;5105522;28;20239;-52
2022/03/20 08:21:13;;;;;;;5.53;3.43;;;7.90;78.60;;;;;;5101387;28;20223;-60
2022/03/20 08:23:57;;;;;;;5.00;3.30;;;8.20;78.00;;;;;;5103891;28;20235;-57
2022/03/20 08:26:42;;;;;;;6.57;3.43;;;8.50;77.00;;;;;;5105003;28;20199;-57
2022/03/20 08:29:26;;;;;;;8.20;3.47;;;8.70;76.80;;;;;;5101056;28;20188;-60
2022/03/20 08:32:11;;;;;;;6.87;3.30;;;8.90;76.30;;;;;;5105472;28;20196;-59
2022/03/20 08:34:55;;;;;;;4.67;3.50;;;9.00;75.60;;;;;;5103654;28;20246;-58
2022/03/20 08:37:41;;;;;;;5.20;3.43;;;9.10;75.80;;;;;;5101230;28;20231;-55
2022/03/20 08:40:26;;;;;;;5.63;4.30;;;9.50;74.30;;;;;;5105624;28;20270;-55
2022/03/20 08:43:15;;;;;;;6.03;4.23;;;9.50;73.80;;;;;;5101572;28;20197;-60
2022/03/20 08:45:59;;;;;;;8.07;4.17;;;9.70;74.00;;;;;;5102619;28;20200;-50
2022/03/20 08:48:44;;;;;;;4.80;3.67;;;9.80;73.20;;;;;;5105446;28;20234;-55
2022/03/20 08:51:28;;;;;;;4.30;3.70;;;9.90;72.90;;;;;;5101004;28;20233;-59
2022/03/20 08:54:13;;;;;;;12.43;4.23;;;9.80;73.30;;;;;;5121209;27;20191;-57
2022/03/20 08:56:58;;;;;;;4.93;3.93;;;10.00;73.10;;;;;;5123939;28;20191;-55
2022/03/20 08:59:42;;;;;;;5.50;3.57;;;10.00;72.70;;;;;;5116792;28;20210;-58
2022/03/20 09:02:26;;;;;;;6.53;4.03;;;10.10;73.00;;;;;;5121289;28;20227;-49
2022/03/20 09:05:12;;;;;;;6.90;4.00;;;10.50;71.70;;;;;;5122644;28;20188;-62
2022/03/20 09:07:57;;;;;;;7.50;4.13;;;10.60;71.00;;;;;;5118209;28;20195;-51
2022/03/20 09:10:41;;;;;;;5.87;3.43;;;10.70;71.30;;;;;;5122625;28;20199;-58
2022/03/20 09:13:27;;;;;;;6.00;4.07;;;10.90;70.30;;;;;;5121032;28;20272;-58
2022/03/20 09:19:18;;;;;;;6.57;4.23;;;11.40;69.50;;;;;;5123202;28;20198;-52
2022/03/20 09:22:03;;;;;;;4.67;3.83;;;11.60;69.10;;;;;;5119262;28;20308;-60
2022/03/20 09:24:48;;;;;;;6.37;4.40;;;11.60;68.40;;;;;;5120637;28;20245;-59
2022/03/20 09:27:32;;;;;;;6.17;4.13;;;11.90;68.10;;;;;;5121322;28;20252;-60
2022/03/20 09:30:16;;;;;;;6.30;4.43;;;12.30;67.60;;;;;;5118165;28;20280;-60
2022/03/20 09:33:05;;;;;;;9.30;5.10;;;12.40;67.20;;;;;;5122239;28;20192;-53
2022/03/20 09:35:49;;;;;;;5.97;4.30;;;12.50;66.50;;;;;;5128060;27;20237;-57
2022/03/20 09:38:34;;;;;;;5.33;4.33;;;12.90;66.10;;;;;;5121271;27;20192;-51
2022/03/20 09:41:22;;;;;;;7.50;4.77;;;12.90;65.20;;;;;;5127066;27;20319;-61
2022/03/20 09:44:07;;;;;;;9.13;5.20;;;12.80;64.80;;;;;;5126648;27;20210;-61
2022/03/20 09:46:51;;;;;;;8.30;4.50;;;12.80;65.50;;;;;;5122509;27;20187;-56
2022/03/20 09:49:36;;;;;;;5.50;4.60;;;13.10;65.70;;;;;;5125491;27;20190;-53
2022/03/20 09:52:22;;;;;;;8.23;5.17;;;12.90;65.80;;;;;;5123240;27;20213;-55
2022/03/20 09:55:09;;;;;;;7.03;4.47;;;13.50;64.20;;;;;;5124408;27;20237;-55
2022/03/20 09:57:58;;;;;;;9.43;5.20;;;14.30;63.10;;;;;;5125076;27;20199;-53
2022/03/20 10:00:43;;;;;;;6.53;5.07;;;14.60;61.80;;;;;;5122235;27;20187;-58
2022/03/20 10:03:27;;;;;;;7.43;4.80;;;14.40;61.30;;;;;;5124880;27;20185;-54
2022/03/20 10:06:17;;;;;;;7.67;4.80;;;14.60;60.60;;;;;;5137087;27;20235;-55
2022/03/20 10:09:06;;;;;;;8.97;5.43;;;15.20;60.50;;;;;;5132743;27;20203;-61
2022/03/20 10:11:56;;;;;;;9.87;5.30;;;15.50;59.10;;;;;;5122192;27;20215;-57
2022/03/20 10:14:45;;;;;;;5.67;4.80;;;15.50;58.70;;;;;;5132429;27;20194;-54
2022/03/20 10:17:30;;;;;;;7.90;5.07;;;15.50;58.20;;;;;;5133529;27;20183;-51
2022/03/20 10:20:15;;;;;;;6.47;5.10;;;15.40;58.10;;;;;;5133586;27;20197;-61
2022/03/20 10:23:00;;;;;;;7.87;5.13;;;15.20;58.90;;;;;;5130849;27;20226;-62
2022/03/20 10:25:51;;;;;;;6.57;5.03;;;15.40;58.90;;;;;;5125833;27;20215;-53
2022/03/20 10:28:48;;;;;;;6.90;5.27;;;16.00;57.00;;;;;;5136038;27;20237;-50
2022/03/20 10:31:32;;;;;;;9.33;5.33;;;16.00;57.00;;;;;;5136759;27;20195;-61
2022/03/20 10:34:17;;;;;;;8.65;5.15;;;16.30;57.40;;;;;;5131706;27;20195;-49
2022/03/20 10:37:02;;;;;;;8.75;5.35;;;16.30;56.60;;;;;;5138516;27;20280;-55
2022/03/20 10:39:46;;;;;;;7.57;5.30;;;16.80;56.10;;;;;;5136682;27;20227;-62
2022/03/20 10:42:31;;;;;;;6.20;4.25;;;17.10;55.40;;;;;;5127898;27;20248;-51
2022/03/20 10:45:16;;;;;;;7.32;5.40;;;17.30;55.30;;;;;;5132417;27;20210;-59
2022/03/20 10:48:01;;;;;;;7.72;5.30;;;17.30;54.40;;;;;;5129112;27;20272;-60
2022/03/20 10:50:47;;;;;;;6.85;5.05;;;18.00;54.70;;;;;;5130344;27;20397;-56
2022/03/20 10:53:32;;;;;;;6.07;5.47;;;18.70;52.90;;;;;;5137180;27;20195;-57
2022/03/20 10:56:17;;;;;;;5.13;4.63;;;18.70;52.60;;;;;;5132271;27;20200;-51
2022/03/20 10:59:15;;;;;;;5.80;4.40;;;17.70;52.50;;;;;;5138665;27;20208;-58
2022/03/20 11:02:01;;;;;;;6.97;5.25;;;18.70;51.80;;;;;;5131652;27;20253;-54
2022/03/20 11:04:46;;;;;;;9.50;6.65;;;18.40;51.50;;;;;;5129042;27;20220;-55
2022/03/20 11:07:30;;;;;;;7.93;5.93;;;17.80;52.10;;;;;;5131559;27;20192;-54
2022/03/20 11:10:17;;;;;;;7.38;5.15;;;18.60;51.40;;;;;;5133236;27;20213;-62
2022/03/20 11:13:02;;;;;;;11.85;6.68;;;19.20;50.40;;;;;;5130249;27;20212;-59
2022/03/20 11:15:48;;;;;;;9.30;6.45;;;18.50;49.80;;;;;;5130387;27;20293;-59
2022/03/20 11:18:35;;;;;;;9.60;6.75;;;18.20;51.40;;;;;;5134114;27;20199;-58
2022/03/20 11:21:23;;;;;;;11.10;5.80;;;18.60;51.20;;;;;;5132023;27;20180;-61
2022/03/20 11:24:09;;;;;;;8.40;5.35;;;19.00;50.30;;;;;;5131616;27;20249;-60
2022/03/20 11:26:57;;;;;;;7.80;6.35;;;18.00;50.60;;;;;;5125104;27;20195;-53
2022/03/20 11:29:50;;;;;;;6.88;5.00;;;19.20;49.80;;;;;;5126168;27;20191;-48
2022/03/20 11:32:35;;;;;;;5.88;5.25;;;19.50;50.00;;;;;;5116657;27;20323;-55
2022/03/20 11:35:25;;;;;;;7.15;5.30;;;19.50;48.40;;;;;;5122748;27;20192;-52
2022/03/20 11:38:21;;;;;;;6.93;4.57;;;19.70;47.80;;;;;;5126258;27;20230;-48
2022/03/20 11:41:17;;;;;;;7.50;5.13;;;20.10;48.10;;;;;;5126220;27;20303;-53
2022/03/20 11:44:21;;;;;;;8.00;5.10;;;20.70;47.30;;;;;;5112012;27;20324;-50
2022/03/20 11:47:15;;;;;;;6.20;4.88;;;21.00;46.60;;;;;;5124539;27;20226;-50
2022/03/20 11:50:19;;;;;;;6.57;4.85;;;19.80;47.20;;;;;;5126658;27;20196;-51
2022/03/20 11:53:05;;;;;;;6.22;4.70;;;19.90;47.20;;;;;;5119484;27;20223;-53
2022/03/20 11:55:51;;;;;;;6.47;4.95;;;20.30;46.30;;;;;;5119744;27;20198;-49
2022/03/20 11:58:40;;;;;;;7.97;4.90;;;20.80;46.10;;;;;;5122337;27;20191;-51
2022/03/20 12:01:24;;;;;;;11.98;6.82;;;20.40;46.50;;;;;;5147301;27;20195;-50
2022/03/20 12:04:13;;;;;;;23.58;13.70;;;20.80;46.70;;;;;;5125784;27;20229;-51
2022/03/20 12:07:16;;;;;;;13.05;6.63;;;19.70;46.20;;;;;;5125313;27;20203;-53
2022/03/20 12:10:06;;;;;;;9.75;6.05;;;19.20;47.90;;;;;;5121437;27;20184;-59
2022/03/20 12:13:00;;;;;;;8.35;6.15;;;18.00;47.50;;;;;;5124503;27;20273;-51
2022/03/20 12:15:45;;;;;;;7.97;4.90;;;17.20;49.00;;;;;;5125135;27;20211;-50
2022/03/20 12:19:09;;;;;;;5.80;4.47;;;18.20;48.10;;;;;;5120509;27;20328;-51
2022/03/20 12:21:59;;;;;;;6.40;4.72;;;17.80;49.30;;;;;;5122729;27;20203;-58
2022/03/20 12:24:54;;;;;;;6.82;4.78;;;17.20;49.10;;;;;;5126370;27;20195;-57
2022/03/20 12:27:39;;;;;;;8.25;5.78;;;16.60;50.60;;;;;;5122391;27;20191;-59
2022/03/20 12:30:31;;;;;;;10.33;6.30;;;16.10;52.00;;;;;;5124037;27;20265;-50
2022/03/20 12:33:27;;;;;;;10.53;7.57;;;15.90;52.40;;;;;;5125506;27;20203;-56
2022/03/20 12:36:27;;;;;;;6.23;5.37;;;15.30;52.80;;;;;;5121735;27;20191;-53
2022/03/20 12:39:11;;;;;;;8.40;5.93;;;15.00;53.00;;;;;;5123325;27;21298;-53
2022/03/20 12:41:57;;;;;;;7.30;4.90;;;15.10;54.80;;;;;;5126011;27;20195;-58
2022/03/20 12:44:50;;;;;;;5.77;4.07;;;15.10;53.20;;;;;;5122066;27;20279;-52
2022/03/20 12:47:35;;;;;;;10.97;6.67;;;15.20;52.60;;;;;;5123738;27;20245;-55
2022/03/20 12:50:23;;;;;;;18.73;7.03;;;14.90;51.80;;;;;;5125672;27;20194;-52
2022/03/20 12:53:14;;;;;;;6.90;4.60;;;15.10;53.00;;;;;;5121810;27;20225;-50
2022/03/20 12:56:01;;;;;;;7.07;4.10;;;14.90;53.90;;;;;;5125302;27;20228;-60
2022/03/20 12:58:45;;;;;;;7.00;4.60;;;14.90;54.30;;;;;;5125665;28;20225;-60
2022/03/20 13:01:37;;;;;;;9.10;4.37;;;14.90;53.40;;;;;;5121958;28;20239;-60
2022/03/20 13:04:23;;;;;;;7.40;4.60;;;14.90;53.10;;;;;;5125104;28;20273;-54
2022/03/20 13:07:26;;;;;;;4.80;3.67;;;14.80;54.60;;;;;;5123926;28;20313;-61
2022/03/20 13:10:13;;;;;;;3.50;3.20;;;15.10;52.80;;;;;;5124597;27;20212;-57
2022/03/20 13:13:01;;;;;;;6.70;3.97;;;15.70;52.10;;;;;;5129338;27;20322;-57
2022/03/20 13:15:48;;;;;;;6.93;4.27;;;16.40;50.00;;;;;;5128628;27;20241;-54
2022/03/20 13:18:33;;;;;;;5.40;4.10;;;16.80;51.00;;;;;;5126032;27;20207;-59
2022/03/20 13:21:17;;;;;;;6.87;4.60;;;16.30;51.00;;;;;;5129874;27;20345;-55
2022/03/20 13:24:01;;;;;;;5.73;4.60;;;16.10;52.30;;;;;;5126652;27;20323;-52
2022/03/20 13:26:56;;;;;;;6.97;4.93;;;15.90;52.90;;;;;;5126544;27;20199;-59
2022/03/20 13:29:50;;;;;;;7.57;4.83;;;15.70;52.00;;;;;;5129809;27;20191;-60
2022/03/20 13:32:35;;;;;;;5.40;4.00;;;15.70;52.10;;;;;;5126630;27;20291;-56
2022/03/20 13:35:20;;;;;;;8.37;4.60;;;15.90;50.90;;;;;;5127129;27;20203;-55
2022/03/20 13:38:04;;;;;;;6.30;4.00;;;16.10;51.60;;;;;;5129413;27;20219;-50
2022/03/20 13:40:49;;;;;;;6.00;4.20;;;16.40;50.80;;;;;;5125632;27;20381;-53
2022/03/20 13:43:34;;;;;;;6.00;4.17;;;17.50;51.20;;;;;;5128169;27;20226;-49
2022/03/20 13:46:23;;;;;;;5.47;4.07;;;19.00;48.60;;;;;;5128649;27;20223;-54
2022/03/20 13:49:12;;;;;;;5.82;4.35;;;20.70;46.80;;;;;;5124758;27;20272;-53
2022/03/20 13:51:57;;;;;;;6.65;4.47;;;22.20;45.00;;;;;;5129134;27;20277;-52
2022/03/20 13:55:02;;;;;;;5.70;4.30;;;22.50;44.60;;;;;;5128221;27;20192;-52
2022/03/20 13:57:52;;;;;;;5.07;4.57;;;23.90;41.80;;;;;;5124898;27;20191;-50
2022/03/20 14:00:39;;;;;;;6.93;3.95;;;23.30;42.60;;;;;;5128698;27;20279;-59
2022/03/20 14:03:30;;;;;;;4.68;4.28;;;22.90;42.90;;;;;;5128331;27;20272;-53
2022/03/20 14:06:14;;;;;;;4.22;3.83;;;23.80;42.30;;;;;;5124101;27;20195;-49
2022/03/20 14:09:00;;;;;;;5.85;4.45;;;22.90;42.70;;;;;;5128679;27;20206;-58
2022/03/20 14:11:45;;;;;;;4.85;4.28;;;22.70;42.10;;;;;;5127603;27;20226;-54
2022/03/20 14:14:47;;;;;;;6.10;4.45;;;23.20;42.30;;;;;;5125038;27;20215;-52
2022/03/20 14:17:50;;;;;;;6.10;3.88;;;22.40;42.50;;;;;;5128777;27;20203;-60
2022/03/20 14:20:34;;;;;;;4.70;4.25;;;20.80;43.00;;;;;;5126300;27;20203;-58
2022/03/20 14:23:19;;;;;;;7.72;4.50;;;20.50;44.60;;;;;;5124012;27;20233;-45
2022/03/20 14:26:19;;;;;;;18.58;10.95;;;21.90;43.50;;;;;;5127852;27;20245;-52
2022/03/20 14:41:53;;;;;;;5.80;3.95;;;21.40;42.40;;;;;;5064827;28;20201;-60
2022/03/20 14:44:49;;;;;;;7.22;4.00;;;22.00;42.20;;;;;;5048849;28;20260;-54
2022/03/20 14:47:33;;;;;;;5.95;3.90;;;21.90;41.80;;;;;;5052309;28;20186;-55
2022/03/20 14:50:18;;;;;;;7.07;4.18;;;21.30;42.50;;;;;;5049018;28;20315;-53
2022/03/20 14:53:02;;;;;;;5.53;3.90;;;22.10;41.10;;;;;;5049376;28;20229;-58
2022/03/20 14:55:47;;;;;;;5.15;3.90;;;22.70;41.90;;;;;;5051892;28;20197;-59
2022/03/20 14:58:31;;;;;;;5.18;3.95;;;22.60;41.50;;;;;;5048048;28;20193;-58
2022/03/20 15:01:17;;;;;;;5.10;4.13;;;21.90;41.40;;;;;;5050186;28;20224;-53
2022/03/20 15:04:01;;;;;;;3.92;3.53;;;20.70;43.00;;;;;;5051009;28;20193;-61
2022/03/20 15:06:48;;;;;;;5.75;4.47;;;21.00;42.30;;;;;;5047062;28;20313;-59
2022/03/20 15:12:35;;;;;;;5.93;3.92;;;19.00;43.80;;;;;;5128653;27;20234;-49
2022/03/20 15:15:21;;;;;;;5.82;4.40;;;19.50;44.00;;;;;;5123091;27;20314;-57
2022/03/20 15:18:07;;;;;;;4.60;3.73;;;19.00;44.10;;;;;;5127052;27;20199;-57
2022/03/20 15:20:54;;;;;;;4.43;3.55;;;19.40;44.20;;;;;;5125658;27;20227;-52
2022/03/20 15:23:38;;;;;;;3.80;3.50;;;19.90;44.30;;;;;;5123645;27;20199;-57
2022/03/20 15:26:23;;;;;;;4.18;3.55;;;20.20;43.00;;;;;;5127399;27;20191;-48